sensor_id;sensor_type;location;lat;lon;timestamp;P1;durP1;ratioP1;P2;durP2;ratioP2
64986;SDS011;67903;52.108;9.358;2024-02-04T00:00:05;9.48;;;7.47;;
64986;SDS011;67903;52.108;9.358;2024-02-04T00:02:58;8.80;;;6.65;;
64986;SDS011;67903;52.108;9.358;2024-02-04T00:05:43;9.90;;;7.47;;
64986;SDS011;67903;52.108;9.358;2024-02-04T00:08:29;10.20;;;8.43;;
64986;SDS011;67903;52.108;9.358;2024-02-04T00:11:14;10.38;;;8.07;;
64986;SDS011;67903;52.108;9.358;2024-02-04T00:14:01;10.75;;;7.47;;
64986;SDS011;67903;52.108;9.358;2024-02-04T00:16:47;11.40;;;8.52;;
64986;SDS011;67903;52.108;9.358;2024-02-04T00:19:33;10.15;;;9.02;;
64986;SDS011;67903;52.108;9.358;2024-02-04T00:22:18;10.77;;;7.93;;
64986;SDS011;67903;52.108;9.358;2024-02-04T00:25:04;10.52;;;8.40;;
64986;SDS011;67903;52.108;9.358;2024-02-04T00:27:51;9.10;;;7.65;;
64986;SDS011;67903;52.108;9.358;2024-02-04T00:30:36;11.30;;;7.93;;
64986;SDS011;67903;52.108;9.358;2024-02-04T00:33:22;10.63;;;7.68;;
64986;SDS011;67903;52.108;9.358;2024-02-04T00:36:08;9.10;;;8.18;;
64986;SDS011;67903;52.108;9.358;2024-02-04T00:38:53;9.98;;;8.18;;
64986;SDS011;67903;52.108;9.358;2024-02-04T00:41:39;8.40;;;7.43;;
64986;SDS011;67903;52.108;9.358;2024-02-04T00:44:24;11.10;;;7.93;;
64986;SDS011;67903;52.108;9.358;2024-02-04T00:47:10;10.88;;;8.20;;
64986;SDS011;67903;52.108;9.358;2024-02-04T00:49:56;10.20;;;8.40;;
64986;SDS011;67903;52.108;9.358;2024-02-04T00:52:41;11.65;;;8.57;;
64986;SDS011;67903;52.108;9.358;2024-02-04T00:55:27;10.73;;;8.15;;
64986;SDS011;67903;52.108;9.358;2024-02-04T00:58:12;11.50;;;8.50;;
64986;SDS011;67903;52.108;9.358;2024-02-04T01:00:58;10.75;;;7.53;;
64986;SDS011;67903;52.108;9.358;2024-02-04T01:03:43;10.82;;;8.35;;
64986;SDS011;67903;52.108;9.358;2024-02-04T01:06:29;11.57;;;8.10;;
64986;SDS011;67903;52.108;9.358;2024-02-04T01:09:24;11.45;;;7.45;;
64986;SDS011;67903;52.108;9.358;2024-02-04T01:12:10;8.45;;;7.28;;
64986;SDS011;67903;52.108;9.358;2024-02-04T01:14:55;8.32;;;7.05;;
64986;SDS011;67903;52.108;9.358;2024-02-04T01:17:41;9.05;;;6.88;;
64986;SDS011;67903;52.108;9.358;2024-02-04T01:20:26;10.23;;;6.57;;
64986;SDS011;67903;52.108;9.358;2024-02-04T01:23:12;7.43;;;6.68;;
64986;SDS011;67903;52.108;9.358;2024-02-04T01:25:58;11.80;;;7.70;;
64986;SDS011;67903;52.108;9.358;2024-02-04T01:28:44;7.15;;;6.00;;
64986;SDS011;67903;52.108;9.358;2024-02-04T01:31:30;9.88;;;6.45;;
64986;SDS011;67903;52.108;9.358;2024-02-04T01:34:16;8.70;;;6.72;;
64986;SDS011;67903;52.108;9.358;2024-02-04T01:37:02;11.10;;;6.80;;
64986;SDS011;67903;52.108;9.358;2024-02-04T01:39:49;9.15;;;7.32;;
64986;SDS011;67903;52.108;9.358;2024-02-04T01:42:34;9.02;;;6.90;;
64986;SDS011;67903;52.108;9.358;2024-02-04T01:45:20;8.63;;;6.97;;
64986;SDS011;67903;52.108;9.358;2024-02-04T01:48:05;8.20;;;6.47;;
64986;SDS011;67903;52.108;9.358;2024-02-04T01:50:52;8.65;;;6.82;;
64986;SDS011;67903;52.108;9.358;2024-02-04T01:53:39;7.75;;;5.97;;
64986;SDS011;67903;52.108;9.358;2024-02-04T01:56:27;8.20;;;6.45;;
64986;SDS011;67903;52.108;9.358;2024-02-04T01:59:12;7.38;;;6.53;;
64986;SDS011;67903;52.108;9.358;2024-02-04T02:02:01;10.57;;;6.50;;
64986;SDS011;67903;52.108;9.358;2024-02-04T02:04:47;6.70;;;5.93;;
64986;SDS011;67903;52.108;9.358;2024-02-04T02:07:33;9.02;;;6.45;;
64986;SDS011;67903;52.108;9.358;2024-02-04T02:10:19;8.75;;;6.70;;
64986;SDS011;67903;52.108;9.358;2024-02-04T02:13:16;8.10;;;6.93;;
64986;SDS011;67903;52.108;9.358;2024-02-04T02:16:10;9.20;;;5.70;;
64986;SDS011;67903;52.108;9.358;2024-02-04T02:19:03;7.70;;;6.80;;
64986;SDS011;67903;52.108;9.358;2024-02-04T02:22:05;11.52;;;5.82;;
64986;SDS011;67903;52.108;9.358;2024-02-04T02:24:59;11.68;;;5.95;;
64986;SDS011;67903;52.108;9.358;2024-02-04T02:27:48;9.68;;;5.05;;
64986;SDS011;67903;52.108;9.358;2024-02-04T02:30:34;7.82;;;6.53;;
64986;SDS011;67903;52.108;9.358;2024-02-04T02:33:20;11.35;;;6.43;;
64986;SDS011;67903;52.108;9.358;2024-02-04T02:36:06;8.02;;;6.82;;
64986;SDS011;67903;52.108;9.358;2024-02-04T02:39:08;9.90;;;6.78;;
64986;SDS011;67903;52.108;9.358;2024-02-04T02:42:01;7.97;;;6.57;;
64986;SDS011;67903;52.108;9.358;2024-02-04T02:44:49;9.70;;;7.05;;
64986;SDS011;67903;52.108;9.358;2024-02-04T02:47:35;9.23;;;6.65;;
64986;SDS011;67903;52.108;9.358;2024-02-04T02:50:22;9.30;;;6.97;;
64986;SDS011;67903;52.108;9.358;2024-02-04T02:53:09;10.65;;;6.45;;
64986;SDS011;67903;52.108;9.358;2024-02-04T02:55:55;10.57;;;6.85;;
64986;SDS011;67903;52.108;9.358;2024-02-04T02:58:40;9.68;;;6.93;;
64986;SDS011;67903;52.108;9.358;2024-02-04T03:01:26;7.38;;;6.05;;
64986;SDS011;67903;52.108;9.358;2024-02-04T03:04:11;6.25;;;5.25;;
64986;SDS011;67903;52.108;9.358;2024-02-04T03:06:57;7.60;;;5.90;;
64986;SDS011;67903;52.108;9.358;2024-02-04T03:09:42;8.73;;;5.90;;
64986;SDS011;67903;52.108;9.358;2024-02-04T03:12:29;6.55;;;5.93;;
64986;SDS011;67903;52.108;9.358;2024-02-04T03:15:14;4.97;;;4.00;;
64986;SDS011;67903;52.108;9.358;2024-02-04T03:18:00;5.88;;;4.85;;
64986;SDS011;67903;52.108;9.358;2024-02-04T03:20:45;7.60;;;5.75;;
64986;SDS011;67903;52.108;9.358;2024-02-04T03:23:31;5.80;;;5.13;;
64986;SDS011;67903;52.108;9.358;2024-02-04T03:26:16;5.63;;;5.13;;
64986;SDS011;67903;52.108;9.358;2024-02-04T03:29:06;6.35;;;4.82;;
64986;SDS011;67903;52.108;9.358;2024-02-04T03:31:52;6.15;;;5.05;;
64986;SDS011;67903;52.108;9.358;2024-02-04T03:34:42;5.88;;;5.10;;
64986;SDS011;67903;52.108;9.358;2024-02-04T03:37:29;5.78;;;4.78;;
64986;SDS011;67903;52.108;9.358;2024-02-04T03:40:14;5.20;;;4.70;;
64986;SDS011;67903;52.108;9.358;2024-02-04T03:43:00;4.55;;;4.15;;
64986;SDS011;67903;52.108;9.358;2024-02-04T03:45:47;4.28;;;3.80;;
64986;SDS011;67903;52.108;9.358;2024-02-04T03:48:33;5.15;;;4.20;;
64986;SDS011;67903;52.108;9.358;2024-02-04T03:51:21;4.47;;;3.55;;
64986;SDS011;67903;52.108;9.358;2024-02-04T03:54:06;5.03;;;4.05;;
64986;SDS011;67903;52.108;9.358;2024-02-04T03:56:52;3.70;;;3.22;;
64986;SDS011;67903;52.108;9.358;2024-02-04T03:59:37;4.05;;;3.65;;
64986;SDS011;67903;52.108;9.358;2024-02-04T04:02:23;4.97;;;4.25;;
64986;SDS011;67903;52.108;9.358;2024-02-04T04:05:11;4.45;;;3.92;;
64986;SDS011;67903;52.108;9.358;2024-02-04T04:07:58;4.13;;;3.70;;
64986;SDS011;67903;52.108;9.358;2024-02-04T04:10:44;4.85;;;3.85;;
64986;SDS011;67903;52.108;9.358;2024-02-04T04:13:30;4.40;;;3.60;;
64986;SDS011;67903;52.108;9.358;2024-02-04T04:16:20;4.70;;;3.22;;
64986;SDS011;67903;52.108;9.358;2024-02-04T04:19:07;4.07;;;3.42;;
64986;SDS011;67903;52.108;9.358;2024-02-04T04:21:52;3.20;;;2.90;;
64986;SDS011;67903;52.108;9.358;2024-02-04T04:24:39;3.45;;;2.75;;
64986;SDS011;67903;52.108;9.358;2024-02-04T04:27:25;2.28;;;1.92;;
64986;SDS011;67903;52.108;9.358;2024-02-04T04:30:10;3.05;;;2.30;;
64986;SDS011;67903;52.108;9.358;2024-02-04T04:32:56;4.80;;;2.90;;
64986;SDS011;67903;52.108;9.358;2024-02-04T04:35:43;3.17;;;2.40;;
64986;SDS011;67903;52.108;9.358;2024-02-04T04:38:29;3.17;;;2.50;;
64986;SDS011;67903;52.108;9.358;2024-02-04T04:41:14;2.78;;;2.47;;
64986;SDS011;67903;52.108;9.358;2024-02-04T04:44:00;3.50;;;2.63;;
64986;SDS011;67903;52.108;9.358;2024-02-04T04:46:45;4.70;;;3.00;;
64986;SDS011;67903;52.108;9.358;2024-02-04T04:49:31;3.63;;;2.65;;
64986;SDS011;67903;52.108;9.358;2024-02-04T04:52:17;3.70;;;3.17;;
64986;SDS011;67903;52.108;9.358;2024-02-04T04:55:02;4.38;;;3.05;;
64986;SDS011;67903;52.108;9.358;2024-02-04T04:57:48;3.92;;;3.20;;
64986;SDS011;67903;52.108;9.358;2024-02-04T05:00:34;3.05;;;2.75;;
64986;SDS011;67903;52.108;9.358;2024-02-04T05:03:20;3.95;;;3.55;;
64986;SDS011;67903;52.108;9.358;2024-02-04T05:06:05;3.88;;;3.13;;
64986;SDS011;67903;52.108;9.358;2024-02-04T05:08:51;4.00;;;3.25;;
64986;SDS011;67903;52.108;9.358;2024-02-04T05:11:37;3.85;;;3.45;;
64986;SDS011;67903;52.108;9.358;2024-02-04T05:14:22;2.97;;;2.67;;
64986;SDS011;67903;52.108;9.358;2024-02-04T05:17:08;4.40;;;2.97;;
64986;SDS011;67903;52.108;9.358;2024-02-04T05:19:54;3.55;;;3.13;;
64986;SDS011;67903;52.108;9.358;2024-02-04T05:22:40;3.67;;;3.38;;
64986;SDS011;67903;52.108;9.358;2024-02-04T05:25:25;5.55;;;4.13;;
64986;SDS011;67903;52.108;9.358;2024-02-04T05:28:11;4.18;;;2.80;;
64986;SDS011;67903;52.108;9.358;2024-02-04T05:30:57;4.05;;;3.60;;
64986;SDS011;67903;52.108;9.358;2024-02-04T05:33:42;3.72;;;3.42;;
64986;SDS011;67903;52.108;9.358;2024-02-04T05:36:28;2.97;;;2.78;;
64986;SDS011;67903;52.108;9.358;2024-02-04T05:39:14;2.97;;;2.78;;
64986;SDS011;67903;52.108;9.358;2024-02-04T05:42:00;2.88;;;2.58;;
64986;SDS011;67903;52.108;9.358;2024-02-04T05:44:46;3.70;;;3.10;;
64986;SDS011;67903;52.108;9.358;2024-02-04T05:47:31;3.28;;;2.70;;
64986;SDS011;67903;52.108;9.358;2024-02-04T05:50:17;3.25;;;2.95;;
64986;SDS011;67903;52.108;9.358;2024-02-04T05:53:03;3.63;;;3.00;;
64986;SDS011;67903;52.108;9.358;2024-02-04T05:55:48;3.13;;;2.78;;
64986;SDS011;67903;52.108;9.358;2024-02-04T05:58:34;2.92;;;2.50;;
64986;SDS011;67903;52.108;9.358;2024-02-04T06:01:19;2.67;;;2.47;;
64986;SDS011;67903;52.108;9.358;2024-02-04T06:04:05;4.13;;;3.10;;
64986;SDS011;67903;52.108;9.358;2024-02-04T06:06:50;4.50;;;2.90;;
64986;SDS011;67903;52.108;9.358;2024-02-04T06:09:36;3.28;;;2.97;;
64986;SDS011;67903;52.108;9.358;2024-02-04T06:12:21;3.13;;;2.80;;
64986;SDS011;67903;52.108;9.358;2024-02-04T06:15:14;2.90;;;2.10;;
64986;SDS011;67903;52.108;9.358;2024-02-04T06:18:00;2.10;;;1.80;;
64986;SDS011;67903;52.108;9.358;2024-02-04T06:20:46;3.25;;;2.30;;
64986;SDS011;67903;52.108;9.358;2024-02-04T06:23:31;2.60;;;2.08;;
64986;SDS011;67903;52.108;9.358;2024-02-04T06:26:17;2.45;;;2.03;;
64986;SDS011;67903;52.108;9.358;2024-02-04T06:29:02;4.25;;;2.30;;
64986;SDS011;67903;52.108;9.358;2024-02-04T06:31:48;3.75;;;2.35;;
64986;SDS011;67903;52.108;9.358;2024-02-04T06:34:33;2.60;;;2.40;;
64986;SDS011;67903;52.108;9.358;2024-02-04T06:37:19;2.38;;;2.17;;
64986;SDS011;67903;52.108;9.358;2024-02-04T06:40:05;2.60;;;2.40;;
64986;SDS011;67903;52.108;9.358;2024-02-04T06:42:51;2.30;;;2.10;;
64986;SDS011;67903;52.108;9.358;2024-02-04T06:45:37;2.25;;;1.85;;
64986;SDS011;67903;52.108;9.358;2024-02-04T06:48:23;2.20;;;2.00;;
64986;SDS011;67903;52.108;9.358;2024-02-04T06:51:08;3.15;;;2.33;;
64986;SDS011;67903;52.108;9.358;2024-02-04T06:53:53;1.75;;;1.65;;
64986;SDS011;67903;52.108;9.358;2024-02-04T06:56:39;2.38;;;1.63;;
64986;SDS011;67903;52.108;9.358;2024-02-04T06:59:25;2.50;;;1.80;;
64986;SDS011;67903;52.108;9.358;2024-02-04T07:02:10;1.83;;;1.70;;
64986;SDS011;67903;52.108;9.358;2024-02-04T07:04:56;2.75;;;1.85;;
64986;SDS011;67903;52.108;9.358;2024-02-04T07:07:41;3.38;;;1.65;;
64986;SDS011;67903;52.108;9.358;2024-02-04T07:10:27;1.75;;;1.63;;
64986;SDS011;67903;52.108;9.358;2024-02-04T07:13:13;2.47;;;1.98;;
64986;SDS011;67903;52.108;9.358;2024-02-04T07:15:59;2.38;;;1.40;;
64986;SDS011;67903;52.108;9.358;2024-02-04T07:18:44;1.95;;;1.30;;
64986;SDS011;67903;52.108;9.358;2024-02-04T07:21:30;4.13;;;1.60;;
64986;SDS011;67903;52.108;9.358;2024-02-04T07:24:15;1.48;;;1.38;;
64986;SDS011;67903;52.108;9.358;2024-02-04T07:27:01;1.60;;;1.33;;
64986;SDS011;67903;52.108;9.358;2024-02-04T07:29:46;2.38;;;1.20;;
64986;SDS011;67903;52.108;9.358;2024-02-04T07:32:32;2.58;;;1.40;;
64986;SDS011;67903;52.108;9.358;2024-02-04T07:35:19;2.95;;;1.40;;
64986;SDS011;67903;52.108;9.358;2024-02-04T07:38:04;2.22;;;1.02;;
64986;SDS011;67903;52.108;9.358;2024-02-04T07:40:50;2.05;;;1.60;;
64986;SDS011;67903;52.108;9.358;2024-02-04T07:43:35;4.25;;;1.77;;
64986;SDS011;67903;52.108;9.358;2024-02-04T07:46:21;3.33;;;1.70;;
64986;SDS011;67903;52.108;9.358;2024-02-04T07:49:06;4.20;;;1.77;;
64986;SDS011;67903;52.108;9.358;2024-02-04T07:51:52;3.03;;;1.50;;
64986;SDS011;67903;52.108;9.358;2024-02-04T07:54:37;1.50;;;1.40;;
64986;SDS011;67903;52.108;9.358;2024-02-04T07:57:23;4.13;;;1.98;;
64986;SDS011;67903;52.108;9.358;2024-02-04T08:00:09;3.65;;;1.45;;
64986;SDS011;67903;52.108;9.358;2024-02-04T08:02:58;2.95;;;1.60;;
64986;SDS011;67903;52.108;9.358;2024-02-04T08:05:44;5.50;;;1.95;;
64986;SDS011;67903;52.108;9.358;2024-02-04T08:08:29;2.35;;;1.63;;
64986;SDS011;67903;52.108;9.358;2024-02-04T08:11:15;3.03;;;1.85;;
64986;SDS011;67903;52.108;9.358;2024-02-04T08:14:02;4.07;;;1.80;;
64986;SDS011;67903;52.108;9.358;2024-02-04T08:16:48;3.58;;;1.80;;
64986;SDS011;67903;52.108;9.358;2024-02-04T08:19:34;2.17;;;1.60;;
64986;SDS011;67903;52.108;9.358;2024-02-04T08:22:20;6.07;;;1.90;;
64986;SDS011;67903;52.108;9.358;2024-02-04T08:25:06;4.68;;;1.88;;
64986;SDS011;67903;52.108;9.358;2024-02-04T08:27:52;4.20;;;2.13;;
64986;SDS011;67903;52.108;9.358;2024-02-04T08:30:40;4.85;;;2.50;;
64986;SDS011;67903;52.108;9.358;2024-02-04T08:33:25;2.58;;;2.00;;
64986;SDS011;67903;52.108;9.358;2024-02-04T08:36:11;2.38;;;1.73;;
64986;SDS011;67903;52.108;9.358;2024-02-04T08:38:57;4.45;;;1.95;;
64986;SDS011;67903;52.108;9.358;2024-02-04T08:41:42;4.03;;;1.63;;
64986;SDS011;67903;52.108;9.358;2024-02-04T08:44:28;4.72;;;1.73;;
64986;SDS011;67903;52.108;9.358;2024-02-04T08:47:24;4.20;;;2.00;;
64986;SDS011;67903;52.108;9.358;2024-02-04T08:50:09;3.60;;;1.92;;
64986;SDS011;67903;52.108;9.358;2024-02-04T08:52:57;2.90;;;1.50;;
64986;SDS011;67903;52.108;9.358;2024-02-04T08:55:43;2.80;;;1.77;;
64986;SDS011;67903;52.108;9.358;2024-02-04T08:58:29;1.90;;;1.45;;
64986;SDS011;67903;52.108;9.358;2024-02-04T09:01:14;3.63;;;1.67;;
64986;SDS011;67903;52.108;9.358;2024-02-04T09:04:00;4.97;;;1.55;;
64986;SDS011;67903;52.108;9.358;2024-02-04T09:06:45;4.40;;;1.92;;
64986;SDS011;67903;52.108;9.358;2024-02-04T09:09:31;5.03;;;1.50;;
64986;SDS011;67903;52.108;9.358;2024-02-04T09:12:17;4.07;;;1.80;;
64986;SDS011;67903;52.108;9.358;2024-02-04T09:15:02;5.07;;;2.17;;
64986;SDS011;67903;52.108;9.358;2024-02-04T09:17:49;4.03;;;1.42;;
64986;SDS011;67903;52.108;9.358;2024-02-04T09:20:35;5.03;;;1.60;;
64986;SDS011;67903;52.108;9.358;2024-02-04T09:23:21;5.15;;;1.70;;
64986;SDS011;67903;52.108;9.358;2024-02-04T09:26:06;3.55;;;1.70;;
64986;SDS011;67903;52.108;9.358;2024-02-04T09:28:52;5.18;;;2.28;;
64986;SDS011;67903;52.108;9.358;2024-02-04T09:31:37;4.70;;;1.67;;
64986;SDS011;67903;52.108;9.358;2024-02-04T09:34:23;5.70;;;1.80;;
64986;SDS011;67903;52.108;9.358;2024-02-04T09:37:10;5.55;;;2.28;;
64986;SDS011;67903;52.108;9.358;2024-02-04T09:39:56;2.78;;;2.08;;
64986;SDS011;67903;52.108;9.358;2024-02-04T09:42:41;3.38;;;1.80;;
64986;SDS011;67903;52.108;9.358;2024-02-04T09:45:27;4.88;;;2.20;;
64986;SDS011;67903;52.108;9.358;2024-02-04T09:48:16;4.72;;;1.50;;
64986;SDS011;67903;52.108;9.358;2024-02-04T09:51:03;5.72;;;1.70;;
64986;SDS011;67903;52.108;9.358;2024-02-04T09:53:51;6.35;;;1.85;;
64986;SDS011;67903;52.108;9.358;2024-02-04T09:56:38;4.60;;;1.35;;
64986;SDS011;67903;52.108;9.358;2024-02-04T09:59:25;4.35;;;1.75;;
64986;SDS011;67903;52.108;9.358;2024-02-04T10:02:10;2.90;;;1.60;;
64986;SDS011;67903;52.108;9.358;2024-02-04T10:05:00;4.43;;;2.17;;
64986;SDS011;67903;52.108;9.358;2024-02-04T10:07:46;5.53;;;1.83;;
64986;SDS011;67903;52.108;9.358;2024-02-04T10:10:32;3.20;;;1.63;;
64986;SDS011;67903;52.108;9.358;2024-02-04T10:13:18;5.72;;;1.70;;
64986;SDS011;67903;52.108;9.358;2024-02-04T10:16:04;3.75;;;1.35;;
64986;SDS011;67903;52.108;9.358;2024-02-04T10:18:50;2.13;;;1.45;;
64986;SDS011;67903;52.108;9.358;2024-02-04T10:21:38;2.90;;;1.15;;
64986;SDS011;67903;52.108;9.358;2024-02-04T10:24:24;4.70;;;1.60;;
64986;SDS011;67903;52.108;9.358;2024-02-04T10:27:10;2.83;;;1.35;;
64986;SDS011;67903;52.108;9.358;2024-02-04T10:30:06;2.15;;;1.30;;
64986;SDS011;67903;52.108;9.358;2024-02-04T10:32:52;1.88;;;1.20;;
64986;SDS011;67903;52.108;9.358;2024-02-04T10:35:38;8.02;;;1.77;;
64986;SDS011;67903;52.108;9.358;2024-02-04T10:38:24;3.00;;;1.40;;
64986;SDS011;67903;52.108;9.358;2024-02-04T10:41:14;2.75;;;1.20;;
64986;SDS011;67903;52.108;9.358;2024-02-04T10:44:01;3.05;;;1.35;;
64986;SDS011;67903;52.108;9.358;2024-02-04T10:46:49;3.42;;;1.25;;
64986;SDS011;67903;52.108;9.358;2024-02-04T10:49:35;2.05;;;1.25;;
64986;SDS011;67903;52.108;9.358;2024-02-04T10:52:26;2.05;;;1.20;;
64986;SDS011;67903;52.108;9.358;2024-02-04T10:55:12;2.47;;;1.23;;
64986;SDS011;67903;52.108;9.358;2024-02-04T10:58:02;3.83;;;1.38;;
64986;SDS011;67903;52.108;9.358;2024-02-04T11:00:48;4.53;;;1.25;;
64986;SDS011;67903;52.108;9.358;2024-02-04T11:03:34;3.17;;;1.60;;
64986;SDS011;67903;52.108;9.358;2024-02-04T11:06:21;5.20;;;1.38;;
64986;SDS011;67903;52.108;9.358;2024-02-04T11:09:08;3.03;;;1.33;;
64986;SDS011;67903;52.108;9.358;2024-02-04T11:11:58;4.18;;;1.50;;
64986;SDS011;67903;52.108;9.358;2024-02-04T11:14:46;2.97;;;1.20;;
64986;SDS011;67903;52.108;9.358;2024-02-04T11:20:58;3.28;;;1.23;;
64986;SDS011;67903;52.108;9.358;2024-02-04T11:27:00;2.63;;;1.30;;
64986;SDS011;67903;52.108;9.358;2024-02-04T11:29:48;3.53;;;1.52;;
64986;SDS011;67903;52.108;9.358;2024-02-04T11:32:37;4.00;;;1.33;;
64986;SDS011;67903;52.108;9.358;2024-02-04T11:35:23;1.70;;;1.10;;
64986;SDS011;67903;52.108;9.358;2024-02-04T11:38:09;3.08;;;1.05;;
64986;SDS011;67903;52.108;9.358;2024-02-04T11:40:56;3.50;;;1.45;;
64986;SDS011;67903;52.108;9.358;2024-02-04T11:43:42;3.55;;;1.40;;
64986;SDS011;67903;52.108;9.358;2024-02-04T11:46:30;4.15;;;1.48;;
64986;SDS011;67903;52.108;9.358;2024-02-04T11:49:19;3.88;;;1.50;;
64986;SDS011;67903;52.108;9.358;2024-02-04T11:52:18;2.30;;;1.33;;
64986;SDS011;67903;52.108;9.358;2024-02-04T11:55:04;2.70;;;1.27;;
64986;SDS011;67903;52.108;9.358;2024-02-04T11:57:52;1.95;;;1.30;;
64986;SDS011;67903;52.108;9.358;2024-02-04T12:00:41;2.10;;;1.23;;
64986;SDS011;67903;52.108;9.358;2024-02-04T12:03:33;2.80;;;1.50;;
64986;SDS011;67903;52.108;9.358;2024-02-04T12:06:19;4.78;;;1.40;;
64986;SDS011;67903;52.108;9.358;2024-02-04T12:09:05;2.20;;;1.63;;
64986;SDS011;67903;52.108;9.358;2024-02-04T12:11:51;3.70;;;1.58;;
64986;SDS011;67903;52.108;9.358;2024-02-04T12:14:38;2.22;;;1.40;;
64986;SDS011;67903;52.108;9.358;2024-02-04T12:17:25;2.08;;;1.80;;
64986;SDS011;67903;52.108;9.358;2024-02-04T12:20:10;2.08;;;1.10;;
64986;SDS011;67903;52.108;9.358;2024-02-04T12:22:56;2.53;;;1.60;;
64986;SDS011;67903;52.108;9.358;2024-02-04T12:25:42;3.05;;;1.70;;
64986;SDS011;67903;52.108;9.358;2024-02-04T12:28:29;2.72;;;1.70;;
64986;SDS011;67903;52.108;9.358;2024-02-04T12:31:18;2.30;;;1.45;;
64986;SDS011;67903;52.108;9.358;2024-02-04T12:34:04;2.55;;;1.60;;
64986;SDS011;67903;52.108;9.358;2024-02-04T12:36:57;4.45;;;2.35;;
64986;SDS011;67903;52.108;9.358;2024-02-04T12:39:44;5.03;;;2.35;;
64986;SDS011;67903;52.108;9.358;2024-02-04T12:42:29;2.85;;;2.00;;
64986;SDS011;67903;52.108;9.358;2024-02-04T12:45:15;3.75;;;1.92;;
64986;SDS011;67903;52.108;9.358;2024-02-04T12:48:01;5.10;;;1.73;;
64986;SDS011;67903;52.108;9.358;2024-02-04T12:50:48;3.75;;;2.22;;
64986;SDS011;67903;52.108;9.358;2024-02-04T12:53:34;1.90;;;1.73;;
64986;SDS011;67903;52.108;9.358;2024-02-04T12:56:19;3.13;;;1.85;;
64986;SDS011;67903;52.108;9.358;2024-02-04T12:59:05;1.80;;;1.70;;
64986;SDS011;67903;52.108;9.358;2024-02-04T13:01:54;3.88;;;2.00;;
64986;SDS011;67903;52.108;9.358;2024-02-04T13:04:41;2.92;;;1.83;;
64986;SDS011;67903;52.108;9.358;2024-02-04T13:07:28;3.08;;;1.75;;
64986;SDS011;67903;52.108;9.358;2024-02-04T13:10:13;2.58;;;2.10;;
64986;SDS011;67903;52.108;9.358;2024-02-04T13:15:45;3.72;;;2.10;;
64986;SDS011;67903;52.108;9.358;2024-02-04T13:18:31;3.58;;;2.25;;
64986;SDS011;67903;52.108;9.358;2024-02-04T13:21:16;2.13;;;1.85;;
64986;SDS011;67903;52.108;9.358;2024-02-04T13:24:05;3.70;;;2.13;;
64986;SDS011;67903;52.108;9.358;2024-02-04T13:26:51;3.85;;;2.33;;
64986;SDS011;67903;52.108;9.358;2024-02-04T13:29:36;4.38;;;2.60;;
64986;SDS011;67903;52.108;9.358;2024-02-04T13:32:22;3.60;;;2.20;;
64986;SDS011;67903;52.108;9.358;2024-02-04T13:35:07;5.22;;;2.95;;
64986;SDS011;67903;52.108;9.358;2024-02-04T13:38:03;2.33;;;1.98;;
64986;SDS011;67903;52.108;9.358;2024-02-04T13:40:50;2.42;;;2.22;;
64986;SDS011;67903;52.108;9.358;2024-02-04T13:43:36;4.85;;;2.72;;
64986;SDS011;67903;52.108;9.358;2024-02-04T13:46:21;3.10;;;2.63;;
64986;SDS011;67903;52.108;9.358;2024-02-04T13:49:07;3.65;;;2.80;;
64986;SDS011;67903;52.108;9.358;2024-02-04T13:51:53;4.97;;;2.70;;
64986;SDS011;67903;52.108;9.358;2024-02-04T13:54:39;3.45;;;2.50;;
64986;SDS011;67903;52.108;9.358;2024-02-04T13:57:24;4.10;;;2.60;;
64986;SDS011;67903;52.108;9.358;2024-02-04T14:00:10;2.63;;;2.15;;
64986;SDS011;67903;52.108;9.358;2024-02-04T14:02:56;2.60;;;2.25;;
64986;SDS011;67903;52.108;9.358;2024-02-04T14:05:41;4.05;;;2.67;;
64986;SDS011;67903;52.108;9.358;2024-02-04T14:08:27;3.47;;;2.33;;
64986;SDS011;67903;52.108;9.358;2024-02-04T14:11:12;3.58;;;2.40;;
64986;SDS011;67903;52.108;9.358;2024-02-04T14:13:58;5.53;;;2.22;;
64986;SDS011;67903;52.108;9.358;2024-02-04T14:16:43;3.05;;;2.10;;
64986;SDS011;67903;52.108;9.358;2024-02-04T14:19:29;1.95;;;1.75;;
64986;SDS011;67903;52.108;9.358;2024-02-04T14:22:15;2.08;;;1.90;;
64986;SDS011;67903;52.108;9.358;2024-02-04T14:25:02;2.38;;;1.95;;
64986;SDS011;67903;52.108;9.358;2024-02-04T14:27:48;2.13;;;1.75;;
64986;SDS011;67903;52.108;9.358;2024-02-04T14:30:34;2.53;;;1.80;;
64986;SDS011;67903;52.108;9.358;2024-02-04T14:33:19;4.22;;;1.63;;
64986;SDS011;67903;52.108;9.358;2024-02-04T14:36:06;3.63;;;1.73;;
64986;SDS011;67903;52.108;9.358;2024-02-04T14:38:52;1.80;;;1.65;;
64986;SDS011;67903;52.108;9.358;2024-02-04T14:41:37;5.03;;;2.25;;
64986;SDS011;67903;52.108;9.358;2024-02-04T14:44:23;1.80;;;1.52;;
64986;SDS011;67903;52.108;9.358;2024-02-04T14:47:08;2.67;;;1.60;;
64986;SDS011;67903;52.108;9.358;2024-02-04T14:49:54;2.17;;;1.60;;
64986;SDS011;67903;52.108;9.358;2024-02-04T14:52:40;2.38;;;1.50;;
64986;SDS011;67903;52.108;9.358;2024-02-04T14:55:25;2.95;;;1.60;;
64986;SDS011;67903;52.108;9.358;2024-02-04T14:58:13;1.80;;;1.42;;
64986;SDS011;67903;52.108;9.358;2024-02-04T15:00:58;1.52;;;1.27;;
64986;SDS011;67903;52.108;9.358;2024-02-04T15:03:44;3.05;;;1.50;;
64986;SDS011;67903;52.108;9.358;2024-02-04T15:06:30;1.55;;;1.23;;
64986;SDS011;67903;52.108;9.358;2024-02-04T15:09:17;2.00;;;1.27;;
64986;SDS011;67903;52.108;9.358;2024-02-04T15:12:03;3.53;;;1.15;;
64986;SDS011;67903;52.108;9.358;2024-02-04T15:14:48;2.10;;;1.13;;
64986;SDS011;67903;52.108;9.358;2024-02-04T15:17:34;1.58;;;0.90;;
64986;SDS011;67903;52.108;9.358;2024-02-04T15:20:20;1.88;;;1.00;;
64986;SDS011;67903;52.108;9.358;2024-02-04T15:23:08;1.70;;;1.50;;
64986;SDS011;67903;52.108;9.358;2024-02-04T15:25:54;1.60;;;0.90;;
64986;SDS011;67903;52.108;9.358;2024-02-04T15:28:41;2.42;;;0.90;;
64986;SDS011;67903;52.108;9.358;2024-02-04T15:31:26;1.58;;;1.45;;
64986;SDS011;67903;52.108;9.358;2024-02-04T15:34:13;3.38;;;1.40;;
64986;SDS011;67903;52.108;9.358;2024-02-04T15:37:02;2.47;;;1.10;;
64986;SDS011;67903;52.108;9.358;2024-02-04T15:39:48;2.80;;;1.75;;
64986;SDS011;67903;52.108;9.358;2024-02-04T15:42:34;2.20;;;1.27;;
64986;SDS011;67903;52.108;9.358;2024-02-04T15:45:20;2.65;;;1.45;;
64986;SDS011;67903;52.108;9.358;2024-02-04T15:48:05;2.50;;;2.30;;
64986;SDS011;67903;52.108;9.358;2024-02-04T15:50:54;3.65;;;2.03;;
64986;SDS011;67903;52.108;9.358;2024-02-04T15:53:40;3.25;;;1.85;;
64986;SDS011;67903;52.108;9.358;2024-02-04T15:56:26;2.65;;;1.73;;
64986;SDS011;67903;52.108;9.358;2024-02-04T15:59:16;3.10;;;1.60;;
64986;SDS011;67903;52.108;9.358;2024-02-04T16:02:05;5.05;;;1.95;;
64986;SDS011;67903;52.108;9.358;2024-02-04T16:04:53;2.80;;;1.90;;
64986;SDS011;67903;52.108;9.358;2024-02-04T16:07:39;8.95;;;4.95;;
64986;SDS011;67903;52.108;9.358;2024-02-04T16:10:26;4.18;;;3.30;;
64986;SDS011;67903;52.108;9.358;2024-02-04T16:13:12;3.80;;;2.17;;
64986;SDS011;67903;52.108;9.358;2024-02-04T16:15:58;3.00;;;1.60;;
64986;SDS011;67903;52.108;9.358;2024-02-04T16:18:47;5.05;;;2.00;;
64986;SDS011;67903;52.108;9.358;2024-02-04T16:21:33;1.95;;;1.75;;
64986;SDS011;67903;52.108;9.358;2024-02-04T16:24:18;5.18;;;2.08;;
64986;SDS011;67903;52.108;9.358;2024-02-04T16:27:04;2.80;;;2.00;;
64986;SDS011;67903;52.108;9.358;2024-02-04T16:29:49;3.65;;;1.95;;
64986;SDS011;67903;52.108;9.358;2024-02-04T16:32:35;2.38;;;1.60;;
64986;SDS011;67903;52.108;9.358;2024-02-04T16:35:20;2.90;;;1.80;;
64986;SDS011;67903;52.108;9.358;2024-02-04T16:38:06;2.22;;;1.80;;
64986;SDS011;67903;52.108;9.358;2024-02-04T16:40:51;4.03;;;1.80;;
64986;SDS011;67903;52.108;9.358;2024-02-04T16:43:37;2.20;;;1.75;;
64986;SDS011;67903;52.108;9.358;2024-02-04T16:46:23;4.28;;;1.88;;
64986;SDS011;67903;52.108;9.358;2024-02-04T16:49:09;3.90;;;2.20;;